Time;durP1;ratioP1;P1;durP2;ratioP2;P2;SDS_P1;SDS_P2;PMS_P1;PMS_P2;Temp;Humidity;BMP_temperature;BMP_pressure;BME280_temperature;BME280_humidity;BME280_pressure;Samples;Min_cycle;Max_cycle;Signal;HPM_P1;HPM_P2
2022/02/22 00:02:17;;;;;;;15.23;3.35;;;8.20;93.00;;;;;;5091639;28;20052;-66
2022/02/22 00:04:46;;;;;;;27.23;4.30;;;8.20;92.60;;;;;;5081614;28;20033;-66
2022/02/22 00:07:14;;;;;;;41.83;6.00;;;8.10;92.00;;;;;;5088863;28;20028;-67
2022/02/22 00:09:40;;;;;;;30.08;4.47;;;8.10;92.20;;;;;;5091919;28;20073;-66
2022/02/22 00:12:06;;;;;;;27.27;4.97;;;8.10;92.30;;;;;;5090193;28;20024;-67
2022/02/22 00:14:32;;;;;;;18.38;3.38;;;8.10;92.10;;;;;;5091999;28;20165;-66
2022/02/22 00:16:58;;;;;;;27.50;4.75;;;8.10;92.70;;;;;;5078228;28;20485;-66
2022/02/22 00:19:26;;;;;;;37.40;4.95;;;8.10;92.60;;;;;;5079726;28;20020;-66
2022/02/22 00:21:53;;;;;;;24.35;3.90;;;8.10;92.20;;;;;;5096717;28;20105;-66
2022/02/22 00:24:19;;;;;;;36.00;4.82;;;8.10;92.00;;;;;;5095655;28;20071;-66
2022/02/22 00:26:44;;;;;;;35.95;6.50;;;8.20;92.10;;;;;;5081142;28;20109;-66
2022/02/22 00:29:11;;;;;;;34.00;4.70;;;8.10;92.30;;;;;;5082306;28;20113;-66
2022/02/22 00:31:37;;;;;;;36.67;5.72;;;8.10;92.40;;;;;;5081987;28;20436;-66
2022/02/22 00:34:03;;;;;;;36.65;5.90;;;8.10;92.20;;;;;;5106033;28;20031;-66
2022/02/22 00:36:30;;;;;;;30.27;5.40;;;8.20;92.30;;;;;;5095310;28;20399;-66
2022/02/22 00:38:56;;;;;;;24.90;5.53;;;8.20;92.70;;;;;;5095101;28;20032;-66
2022/02/22 00:41:21;;;;;;;32.45;5.07;;;8.20;92.60;;;;;;5086705;28;20071;-66
2022/02/22 00:43:47;;;;;;;37.90;5.53;;;8.20;92.60;;;;;;5089581;28;20051;-66
2022/02/22 00:46:13;;;;;;;47.45;6.15;;;8.10;92.60;;;;;;5095524;28;20416;-67
2022/02/22 00:48:38;;;;;;;27.33;3.78;;;8.10;92.80;;;;;;5094136;28;20039;-66
2022/02/22 00:51:04;;;;;;;26.38;3.95;;;8.10;92.30;;;;;;5092231;28;20044;-66
2022/02/22 00:53:30;;;;;;;23.90;4.20;;;8.10;92.00;;;;;;5082859;28;20040;-67
2022/02/22 00:55:56;;;;;;;36.13;5.30;;;8.10;92.40;;;;;;5094870;28;20081;-66
2022/02/22 00:58:21;;;;;;;19.63;3.72;;;8.10;92.10;;;;;;5094835;28;20611;-66
2022/02/22 01:00:47;;;;;;;35.20;4.80;;;8.10;92.20;;;;;;5090236;28;20036;-66
2022/02/22 01:03:13;;;;;;;46.95;6.90;;;8.10;92.20;;;;;;5074418;28;20162;-66
2022/02/22 01:05:38;;;;;;;22.10;3.63;;;8.10;92.30;;;;;;5087704;28;20487;-66
2022/02/22 01:08:04;;;;;;;6.85;2.35;;;8.10;92.40;;;;;;5084786;28;20032;-66
2022/02/22 01:10:30;;;;;;;25.38;3.65;;;8.10;93.20;;;;;;5093551;28;20123;-66
2022/02/22 01:12:56;;;;;;;23.48;4.05;;;8.10;93.70;;;;;;5083281;28;20039;-66
2022/02/22 01:15:23;;;;;;;24.25;3.85;;;8.10;93.90;;;;;;5091856;28;20042;-66
2022/02/22 01:17:48;;;;;;;26.75;5.53;;;8.10;94.20;;;;;;5094814;28;20032;-66
2022/02/22 01:20:18;;;;;;;25.38;5.32;;;8.10;94.10;;;;;;5094468;28;20084;-66
2022/02/22 01:22:44;;;;;;;40.97;5.97;;;8.10;94.10;;;;;;5097447;28;20433;-66
2022/02/22 01:25:10;;;;;;;15.18;2.75;;;8.10;93.70;;;;;;5094262;28;20488;-66
2022/02/22 01:27:37;;;;;;;15.55;3.47;;;8.10;93.60;;;;;;5086874;28;20028;-66
2022/02/22 01:30:06;;;;;;;28.73;3.88;;;8.10;93.80;;;;;;5093643;28;20399;-66
2022/02/22 01:32:32;;;;;;;19.20;3.85;;;8.10;94.40;;;;;;5093191;28;20036;-66
2022/02/22 01:34:57;;;;;;;15.98;3.53;;;8.00;94.40;;;;;;5094357;28;20070;-66
2022/02/22 01:37:23;;;;;;;23.88;3.97;;;8.10;94.40;;;;;;5093531;28;20098;-66
2022/02/22 01:39:49;;;;;;;16.60;2.88;;;8.10;94.10;;;;;;5094095;28;20126;-66
2022/02/22 01:42:15;;;;;;;31.23;5.18;;;8.00;94.40;;;;;;5093281;28;20044;-66
2022/02/22 01:44:41;;;;;;;28.73;4.95;;;8.10;94.00;;;;;;5093621;28;20028;-66
2022/02/22 01:47:07;;;;;;;21.67;3.63;;;8.00;93.70;;;;;;5094011;28;20050;-66
2022/02/22 01:49:34;;;;;;;15.57;2.97;;;8.00;93.60;;;;;;5093899;28;20047;-66
2022/02/22 01:52:02;;;;;;;15.70;1.98;;;8.00;93.70;;;;;;5093182;28;20028;-66
2022/02/22 01:54:29;;;;;;;12.38;3.53;;;8.00;94.10;;;;;;5093744;28;20043;-66
2022/02/22 01:56:55;;;;;;;25.35;3.45;;;8.00;94.30;;;;;;5081716;28;20388;-66
2022/02/22 01:59:21;;;;;;;33.80;4.40;;;8.00;94.30;;;;;;5086943;28;20021;-66
2022/02/22 02:01:47;;;;;;;23.38;4.47;;;7.90;94.00;;;;;;5087516;28;20047;-66
2022/02/22 02:04:13;;;;;;;26.95;4.57;;;7.90;94.00;;;;;;5079495;28;20078;-66
2022/02/22 02:06:39;;;;;;;11.20;2.38;;;8.00;93.90;;;;;;5093537;28;20047;-66
2022/02/22 02:09:06;;;;;;;17.88;4.07;;;7.90;93.80;;;;;;5093328;28;20028;-66
2022/02/22 02:11:45;;;;;;;27.83;3.80;;;7.90;93.30;;;;;;5093072;28;20067;-66
2022/02/22 02:14:11;;;;;;;22.20;4.18;;;7.90;92.90;;;;;;5081717;28;20474;-66
2022/02/22 02:16:37;;;;;;;25.38;4.25;;;7.90;93.00;;;;;;5080027;28;20107;-66
2022/02/22 02:19:03;;;;;;;25.80;4.28;;;7.90;92.70;;;;;;5092936;28;20044;-66
2022/02/22 02:21:29;;;;;;;23.85;5.05;;;7.90;92.60;;;;;;5096808;28;20119;-66
2022/02/22 02:24:08;;;;;;;25.45;4.22;;;7.90;92.10;;;;;;5083839;28;20029;-67
2022/02/22 02:26:34;;;;;;;32.15;4.63;;;7.80;92.20;;;;;;5072392;28;20025;-66
2022/02/22 02:29:00;;;;;;;10.48;2.78;;;7.80;92.20;;;;;;5083872;28;20117;-66
2022/02/22 02:31:25;;;;;;;25.42;3.58;;;7.90;92.20;;;;;;5093141;28;20048;-66
2022/02/22 02:33:51;;;;;;;32.40;4.68;;;7.80;92.30;;;;;;5092586;28;20076;-66
2022/02/22 02:36:17;;;;;;;25.45;3.85;;;7.80;92.10;;;;;;5085459;28;20063;-66
2022/02/22 02:38:42;;;;;;;34.55;4.82;;;7.90;92.00;;;;;;5085614;28;20059;-66
2022/02/22 02:41:08;;;;;;;20.08;3.55;;;7.90;92.10;;;;;;5092264;28;20032;-66
2022/02/22 02:43:34;;;;;;;34.17;4.40;;;7.90;92.10;;;;;;5092638;28;20028;-66
2022/02/22 02:45:59;;;;;;;13.43;3.22;;;7.90;91.90;;;;;;5092207;28;20428;-66
2022/02/22 02:48:25;;;;;;;35.40;3.38;;;7.90;92.10;;;;;;5092829;28;20483;-66
2022/02/22 02:50:53;;;;;;;25.20;3.30;;;7.90;92.50;;;;;;5091186;28;20133;-66
2022/02/22 02:53:19;;;;;;;25.85;4.72;;;7.90;92.10;;;;;;5092178;28;20475;-66
2022/02/22 02:55:45;;;;;;;22.92;3.80;;;7.90;92.00;;;;;;5079145;28;20117;-66
2022/02/22 02:58:10;;;;;;;32.45;4.40;;;7.90;92.00;;;;;;5092886;28;20031;-66
2022/02/22 03:00:36;;;;;;;30.73;4.70;;;7.90;92.00;;;;;;5092027;28;20478;-66
2022/02/22 03:03:02;;;;;;;25.90;5.50;;;7.80;92.10;;;;;;5090451;28;20056;-66
2022/02/22 03:05:27;;;;;;;23.70;3.42;;;7.90;92.50;;;;;;5089901;28;20027;-66
2022/02/22 03:07:58;;;;;;;35.13;3.80;;;7.90;92.40;;;;;;5086185;28;20123;-66
2022/02/22 03:10:25;;;;;;;23.58;2.35;;;7.90;92.50;;;;;;5092562;28;20119;-66
2022/02/22 03:12:50;;;;;;;32.92;5.00;;;7.90;93.00;;;;;;5091433;28;20395;-66
2022/02/22 03:15:16;;;;;;;24.27;4.93;;;7.90;92.90;;;;;;5091828;28;20024;-66
2022/02/22 03:17:42;;;;;;;24.20;3.20;;;7.80;92.90;;;;;;5091716;28;20120;-66
2022/02/22 03:20:08;;;;;;;22.73;2.90;;;7.90;93.20;;;;;;5078598;28;20599;-66
2022/02/22 03:22:34;;;;;;;26.77;4.45;;;7.80;92.90;;;;;;5085978;28;20029;-66
2022/02/22 03:25:03;;;;;;;19.92;3.45;;;7.80;92.60;;;;;;5087270;28;20080;-66
2022/02/22 03:27:29;;;;;;;21.85;3.92;;;7.80;92.50;;;;;;5092583;28;20032;-66
2022/02/22 03:29:54;;;;;;;24.92;3.75;;;7.80;92.20;;;;;;5090710;28;20155;-66
2022/02/22 03:32:20;;;;;;;24.30;4.20;;;7.80;92.00;;;;;;5083150;28;20032;-66
2022/02/22 03:34:46;;;;;;;26.55;4.28;;;7.80;92.20;;;;;;5088030;28;20028;-66
2022/02/22 03:37:11;;;;;;;19.88;3.10;;;7.90;92.40;;;;;;5090373;28;20473;-66
2022/02/22 03:39:37;;;;;;;16.33;3.95;;;7.80;92.70;;;;;;5092349;28;20071;-66
2022/02/22 03:42:03;;;;;;;25.85;3.60;;;7.80;92.90;;;;;;5090006;28;20118;-66
2022/02/22 03:44:28;;;;;;;19.17;2.85;;;7.90;93.00;;;;;;5071594;28;20106;-66
2022/02/22 03:46:54;;;;;;;22.88;3.63;;;7.80;93.10;;;;;;5085384;28;20028;-66
2022/02/22 03:49:20;;;;;;;38.25;3.92;;;7.90;93.40;;;;;;5071135;28;20105;-67
2022/02/22 03:51:46;;;;;;;33.00;3.53;;;7.90;93.60;;;;;;5074270;28;20063;-66
2022/02/22 03:54:11;;;;;;;41.30;4.63;;;7.90;93.60;;;;;;5083333;28;20116;-66
2022/02/22 03:56:37;;;;;;;14.45;2.45;;;7.80;93.60;;;;;;5083790;28;20024;-66
2022/02/22 03:59:03;;;;;;;19.25;3.17;;;7.80;93.70;;;;;;5089116;28;20028;-66
2022/02/22 04:01:28;;;;;;;2.53;1.67;;;7.80;94.00;;;;;;5095778;28;20043;-66
2022/02/22 04:03:54;;;;;;;12.05;1.38;;;7.80;94.20;;;;;;5091953;28;20472;-66
2022/02/22 04:06:19;;;;;;;22.27;3.10;;;7.80;94.30;;;;;;5094928;28;20359;-66
2022/02/22 04:08:45;;;;;;;7.60;2.33;;;7.70;94.40;;;;;;5082200;28;20463;-66
2022/02/22 04:11:12;;;;;;;17.38;1.83;;;7.70;94.50;;;;;;5076857;28;20029;-66
2022/02/22 04:13:38;;;;;;;5.15;1.38;;;7.70;94.50;;;;;;5087571;28;20036;-66
2022/02/22 04:16:04;;;;;;;33.58;3.35;;;7.70;94.60;;;;;;5088085;28;20020;-66
2022/02/22 04:18:30;;;;;;;16.05;4.57;;;7.70;94.60;;;;;;5094849;28;20162;-66
2022/02/22 04:20:55;;;;;;;34.50;4.50;;;7.70;94.70;;;;;;5095450;28;20059;-66
2022/02/22 04:23:21;;;;;;;10.73;2.50;;;7.70;94.60;;;;;;5087830;28;20025;-66
2022/02/22 04:25:48;;;;;;;29.13;3.88;;;7.70;94.60;;;;;;5089283;28;20036;-66
2022/02/22 04:28:13;;;;;;;24.35;4.18;;;7.60;94.60;;;;;;5095543;28;20527;-66
2022/02/22 04:30:39;;;;;;;10.15;1.70;;;7.60;94.60;;;;;;5095331;28;20146;-66
2022/02/22 04:33:05;;;;;;;11.85;2.05;;;7.60;94.70;;;;;;5094786;28;20028;-66
2022/02/22 04:35:30;;;;;;;22.50;4.05;;;7.70;94.80;;;;;;5095301;28;20028;-66
2022/02/22 04:37:56;;;;;;;8.77;1.73;;;7.70;94.80;;;;;;5095435;28;20055;-66
2022/02/22 04:40:22;;;;;;;20.25;3.47;;;7.60;94.90;;;;;;5094519;28;20024;-66
2022/02/22 04:42:49;;;;;;;31.83;3.63;;;7.70;94.90;;;;;;5085851;28;20036;-66
2022/02/22 04:45:15;;;;;;;27.63;3.90;;;7.60;94.80;;;;;;5091359;28;20467;-66
2022/02/22 04:47:41;;;;;;;21.58;3.05;;;7.60;94.90;;;;;;5094501;28;20024;-66
2022/02/22 04:50:10;;;;;;;24.33;3.60;;;7.60;94.90;;;;;;5081602;28;20461;-67
2022/02/22 04:52:35;;;;;;;9.02;1.40;;;7.60;94.90;;;;;;5083610;28;20024;-66
2022/02/22 04:55:02;;;;;;;11.13;2.03;;;7.60;94.90;;;;;;5079302;28;20364;-67
2022/02/22 04:57:28;;;;;;;6.70;1.85;;;7.60;95.00;;;;;;5095300;28;20039;-66
2022/02/22 04:59:54;;;;;;;28.02;4.35;;;7.60;95.00;;;;;;5094101;28;20111;-66
2022/02/22 05:02:19;;;;;;;34.05;4.55;;;7.60;95.00;;;;;;5082564;28;20155;-66
2022/02/22 05:04:45;;;;;;;5.88;0.88;;;7.60;95.00;;;;;;5093545;28;20475;-66
2022/02/22 05:07:11;;;;;;;13.75;1.90;;;7.60;95.10;;;;;;5093377;28;20062;-66
2022/02/22 05:09:39;;;;;;;2.45;2.03;;;7.60;95.10;;;;;;5093514;28;20044;-66
2022/02/22 05:12:05;;;;;;;16.20;2.85;;;7.60;95.20;;;;;;5093359;28;20472;-66
2022/02/22 05:14:30;;;;;;;16.88;4.10;;;7.60;95.20;;;;;;5092980;28;20039;-66
2022/02/22 05:16:56;;;;;;;19.63;3.33;;;7.50;95.20;;;;;;5082081;28;20042;-66
2022/02/22 05:19:21;;;;;;;13.25;2.50;;;7.50;95.20;;;;;;5094507;28;20109;-66
2022/02/22 05:21:47;;;;;;;25.38;3.45;;;7.50;95.20;;;;;;5094072;28;20487;-66
2022/02/22 05:24:13;;;;;;;3.38;1.00;;;7.50;95.20;;;;;;5094196;28;20059;-66
2022/02/22 05:26:38;;;;;;;11.30;1.10;;;7.60;95.30;;;;;;5094447;28;20047;-66
2022/02/22 05:29:04;;;;;;;1.92;1.00;;;7.50;95.30;;;;;;5080125;28;20048;-66
2022/02/22 05:31:30;;;;;;;5.10;1.15;;;7.50;95.30;;;;;;5094387;28;20036;-66
2022/02/22 05:33:57;;;;;;;12.13;1.73;;;7.50;95.30;;;;;;5094243;28;20055;-66
2022/02/22 05:36:23;;;;;;;9.18;2.33;;;7.50;95.40;;;;;;5084089;28;20037;-66
2022/02/22 05:38:49;;;;;;;7.10;2.50;;;7.40;95.40;;;;;;5090276;28;20028;-66
2022/02/22 05:41:18;;;;;;;3.20;1.98;;;7.40;95.40;;;;;;5094285;28;20031;-66
2022/02/22 05:43:45;;;;;;;4.15;1.45;;;7.40;95.50;;;;;;5089126;28;20033;-66
2022/02/22 05:46:11;;;;;;;3.28;1.58;;;7.40;95.50;;;;;;5074111;28;20040;-66
2022/02/22 05:48:37;;;;;;;6.13;2.58;;;7.30;95.50;;;;;;5078218;28;20093;-66
2022/02/22 05:51:03;;;;;;;7.85;3.15;;;7.30;95.60;;;;;;5093430;28;20047;-66
2022/02/22 05:53:28;;;;;;;15.07;3.28;;;7.30;95.60;;;;;;5093580;28;20131;-66
2022/02/22 05:55:54;;;;;;;14.95;2.70;;;7.30;95.60;;;;;;5093116;28;20035;-66
2022/02/22 05:58:19;;;;;;;18.80;2.50;;;7.20;95.60;;;;;;5093596;28;20020;-66
2022/02/22 06:00:45;;;;;;;7.72;2.65;;;7.20;95.70;;;;;;5094121;28;20020;-66
2022/02/22 06:03:11;;;;;;;11.80;4.28;;;7.10;95.70;;;;;;5092765;28;20840;-66
2022/02/22 06:05:36;;;;;;;26.77;3.55;;;7.10;95.70;;;;;;5093774;28;20502;-66
2022/02/22 06:08:02;;;;;;;10.02;2.80;;;7.10;95.80;;;;;;5091750;28;20020;-66
2022/02/22 06:10:28;;;;;;;15.52;3.17;;;7.10;95.80;;;;;;5093025;28;20493;-66
2022/02/22 06:12:55;;;;;;;9.52;2.88;;;7.10;95.90;;;;;;5091710;28;20521;-66
2022/02/22 06:15:20;;;;;;;22.40;4.30;;;7.00;95.90;;;;;;5085649;28;20052;-66
2022/02/22 06:17:46;;;;;;;10.05;3.28;;;7.00;96.00;;;;;;5086662;28;20438;-66
2022/02/22 06:20:13;;;;;;;9.55;3.00;;;7.00;96.00;;;;;;5093254;28;20536;-66
2022/02/22 06:22:39;;;;;;;6.60;3.10;;;7.00;96.00;;;;;;5092891;28;20028;-66
2022/02/22 06:25:07;;;;;;;9.52;1.27;;;6.90;96.10;;;;;;5092751;28;20085;-66
2022/02/22 06:27:33;;;;;;;7.88;2.67;;;6.90;96.10;;;;;;5092289;28;20051;-66
2022/02/22 06:29:59;;;;;;;9.20;2.15;;;6.90;96.10;;;;;;5093360;28;20464;-66
2022/02/22 06:32:25;;;;;;;6.63;2.20;;;6.90;96.10;;;;;;5092532;28;20026;-66
2022/02/22 06:34:54;;;;;;;13.80;3.10;;;6.90;96.10;;;;;;5088108;28;20101;-66
2022/02/22 06:37:19;;;;;;;18.73;3.10;;;6.90;96.20;;;;;;5092992;28;20020;-66
2022/02/22 06:39:45;;;;;;;11.52;2.47;;;6.90;96.20;;;;;;5092446;28;20437;-66
2022/02/22 06:42:10;;;;;;;7.25;2.17;;;6.90;96.20;;;;;;5074747;28;20604;-66
2022/02/22 06:44:36;;;;;;;3.30;0.82;;;6.80;96.20;;;;;;5084507;28;20024;-66
2022/02/22 06:47:03;;;;;;;3.92;2.50;;;6.90;96.20;;;;;;5092347;28;20020;-70
2022/02/22 06:49:29;;;;;;;11.40;1.80;;;6.80;96.20;;;;;;5093076;28;20079;-65
2022/02/22 06:51:55;;;;;;;19.50;1.92;;;6.90;96.20;;;;;;5079398;28;20059;-65
2022/02/22 06:54:21;;;;;;;6.25;1.98;;;6.90;96.10;;;;;;5092308;28;20047;-65
2022/02/22 06:56:47;;;;;;;3.20;1.55;;;6.80;96.10;;;;;;5092575;28;20103;-65
2022/02/22 06:59:12;;;;;;;24.65;3.80;;;6.90;96.10;;;;;;5092480;28;20118;-66
2022/02/22 07:01:38;;;;;;;5.78;1.63;;;6.80;96.10;;;;;;5087056;28;20051;-65
2022/02/22 07:04:03;;;;;;;9.00;2.42;;;6.80;96.10;;;;;;5084079;28;20520;-66
2022/02/22 07:06:29;;;;;;;13.35;2.45;;;6.80;96.20;;;;;;5091484;28;20801;-65
2022/02/22 07:08:55;;;;;;;16.65;2.80;;;6.80;96.20;;;;;;5092729;28;20120;-65
2022/02/22 07:11:21;;;;;;;14.05;3.00;;;6.70;96.20;;;;;;5078854;28;20399;-66
2022/02/22 07:13:46;;;;;;;8.55;2.65;;;6.70;96.30;;;;;;5080128;28;20036;-66
2022/02/22 07:16:15;;;;;;;15.23;3.13;;;6.70;96.30;;;;;;5092494;28;20032;-65
2022/02/22 07:18:40;;;;;;;20.60;2.92;;;6.70;96.40;;;;;;5091946;28;20032;-66
2022/02/22 07:21:07;;;;;;;7.72;1.00;;;6.60;96.40;;;;;;5090740;28;20081;-66
2022/02/22 07:23:32;;;;;;;14.43;3.53;;;6.60;96.40;;;;;;5092441;28;20369;-66
2022/02/22 07:25:58;;;;;;;12.10;3.05;;;6.60;96.50;;;;;;5089393;28;20047;-66
2022/02/22 07:28:23;;;;;;;2.50;1.02;;;6.70;96.50;;;;;;5081323;28;20406;-66
2022/02/22 07:30:49;;;;;;;13.85;3.00;;;6.70;96.50;;;;;;5095340;28;20085;-66
2022/02/22 07:33:15;;;;;;;4.65;2.08;;;6.70;96.40;;;;;;5096489;28;20024;-66
2022/02/22 07:35:40;;;;;;;13.73;2.30;;;6.70;96.40;;;;;;5095500;28;20036;-66
2022/02/22 07:38:06;;;;;;;7.85;2.25;;;6.70;96.30;;;;;;5092483;28;20032;-65
2022/02/22 07:40:32;;;;;;;7.50;1.95;;;6.80;96.30;;;;;;5092588;28;20039;-66
2022/02/22 07:42:58;;;;;;;24.85;4.53;;;6.70;96.40;;;;;;5094117;28;20035;-66
2022/02/22 07:45:23;;;;;;;14.45;2.92;;;6.70;96.40;;;;;;5093541;28;20016;-66
2022/02/22 07:47:49;;;;;;;13.57;3.60;;;6.70;96.50;;;;;;5091989;28;20360;-66
2022/02/22 07:50:15;;;;;;;15.02;2.83;;;6.70;96.50;;;;;;5094053;28;20466;-68
2022/02/22 07:52:40;;;;;;;33.05;3.40;;;6.60;96.60;;;;;;5095382;28;20107;-66
2022/02/22 07:55:07;;;;;;;16.20;2.53;;;6.70;96.60;;;;;;5090153;28;20052;-68
2022/02/22 07:57:32;;;;;;;10.18;2.75;;;6.60;96.70;;;;;;5085388;28;20021;-69
2022/02/22 07:59:58;;;;;;;9.63;1.92;;;6.60;96.70;;;;;;5094546;28;20032;-67
2022/02/22 08:02:24;;;;;;;19.35;3.58;;;6.60;96.80;;;;;;5088869;28;20058;-68
2022/02/22 08:04:50;;;;;;;14.95;3.03;;;6.60;96.90;;;;;;5091110;28;20110;-75
2022/02/22 08:07:20;;;;;;;29.45;3.60;;;6.60;96.90;;;;;;5093905;28;20035;-68
2022/02/22 08:09:46;;;;;;;17.73;2.58;;;6.60;97.00;;;;;;5088695;28;20036;-68
2022/02/22 08:12:11;;;;;;;13.52;2.63;;;6.60;97.00;;;;;;5093400;28;20028;-68
2022/02/22 08:14:38;;;;;;;13.25;2.80;;;6.60;97.10;;;;;;5093556;28;20081;-67
2022/02/22 08:17:04;;;;;;;15.13;3.25;;;6.60;97.20;;;;;;5093176;28;20467;-68
2022/02/22 08:19:30;;;;;;;21.17;1.70;;;6.50;97.20;;;;;;5095086;28;20040;-68
2022/02/22 08:21:57;;;;;;;5.07;1.65;;;6.60;97.30;;;;;;5094884;28;20123;-68
2022/02/22 08:24:24;;;;;;;13.57;2.20;;;6.60;97.30;;;;;;5093972;28;20449;-68
2022/02/22 08:26:51;;;;;;;13.65;3.50;;;6.60;97.30;;;;;;5091954;28;20039;-68
2022/02/22 08:29:17;;;;;;;9.15;2.20;;;6.70;97.30;;;;;;5094685;28;20078;-67
2022/02/22 08:31:42;;;;;;;22.73;3.40;;;6.70;97.30;;;;;;5094149;28;20032;-68
2022/02/22 08:34:08;;;;;;;25.17;3.53;;;6.70;97.30;;;;;;5093500;28;20032;-67
2022/02/22 08:36:34;;;;;;;17.92;2.97;;;6.80;97.40;;;;;;5093150;28;20028;-68
2022/02/22 08:38:59;;;;;;;8.60;1.55;;;6.70;97.40;;;;;;5092548;28;20032;-68
2022/02/22 08:41:26;;;;;;;19.75;3.80;;;6.80;97.40;;;;;;5092112;28;20088;-68
2022/02/22 08:43:52;;;;;;;11.65;3.00;;;6.80;97.50;;;;;;5093263;28;20028;-68
2022/02/22 08:46:19;;;;;;;8.10;1.77;;;6.80;97.50;;;;;;5092839;28;20042;-68
2022/02/22 08:48:44;;;;;;;6.00;2.63;;;6.90;97.50;;;;;;5093575;28;20017;-67
2022/02/22 08:51:10;;;;;;;15.23;2.80;;;6.90;97.50;;;;;;5089289;28;20518;-68
2022/02/22 08:53:36;;;;;;;21.90;3.20;;;6.90;97.50;;;;;;5091425;28;20518;-68
2022/02/22 08:56:03;;;;;;;23.25;3.20;;;7.00;97.60;;;;;;5091960;28;20024;-69
2022/02/22 08:58:28;;;;;;;6.32;1.90;;;7.00;97.60;;;;;;5091512;28;20036;-69
2022/02/22 09:00:54;;;;;;;12.75;3.28;;;7.00;97.90;;;;;;5088301;28;20031;-68
2022/02/22 09:03:20;;;;;;;16.02;2.80;;;7.00;97.70;;;;;;5093013;28;20178;-67
2022/02/22 09:05:46;;;;;;;3.28;1.50;;;7.10;97.70;;;;;;5092693;28;20120;-67
2022/02/22 09:08:11;;;;;;;10.10;2.78;;;7.10;97.70;;;;;;5094164;28;20408;-68
2022/02/22 09:10:38;;;;;;;2.40;1.30;;;7.20;97.70;;;;;;5094103;28;20452;-67
2022/02/22 09:13:05;;;;;;;4.82;2.22;;;7.20;97.70;;;;;;5090443;28;20029;-68
2022/02/22 09:15:31;;;;;;;6.82;1.65;;;7.20;97.70;;;;;;5093590;28;20502;-68
2022/02/22 09:17:58;;;;;;;14.10;3.83;;;7.30;97.70;;;;;;5093846;28;20118;-71
2022/02/22 09:20:24;;;;;;;6.03;1.80;;;7.40;97.70;;;;;;5086167;28;20077;-71
2022/02/22 09:22:50;;;;;;;16.15;2.70;;;7.40;97.70;;;;;;5088669;28;20032;-68
2022/02/22 09:25:18;;;;;;;7.05;2.08;;;7.40;97.70;;;;;;5091900;28;20368;-68
2022/02/22 09:27:45;;;;;;;15.95;2.33;;;7.40;97.70;;;;;;5092919;28;20042;-68
2022/02/22 09:30:14;;;;;;;10.65;2.20;;;7.50;97.70;;;;;;5090656;28;20487;-67
2022/02/22 09:32:40;;;;;;;9.75;1.08;;;7.50;97.80;;;;;;5093818;28;20093;-68
2022/02/22 09:35:07;;;;;;;15.20;2.38;;;7.50;97.80;;;;;;5092536;28;20031;-67
2022/02/22 09:37:32;;;;;;;15.98;3.22;;;7.50;97.80;;;;;;5093350;28;20052;-67
2022/02/22 09:39:58;;;;;;;15.77;3.08;;;7.50;97.80;;;;;;5083954;28;20067;-67
2022/02/22 09:42:25;;;;;;;8.73;2.70;;;7.60;97.80;;;;;;5090229;28;20035;-68
2022/02/22 09:44:52;;;;;;;10.80;1.88;;;7.60;97.90;;;;;;5090387;28;20467;-67
2022/02/22 09:47:18;;;;;;;15.00;2.15;;;7.70;97.90;;;;;;5087423;28;20495;-67
2022/02/22 09:49:43;;;;;;;7.68;1.90;;;7.60;97.90;;;;;;5092022;28;20044;-67
2022/02/22 09:52:09;;;;;;;13.13;2.50;;;7.60;97.90;;;;;;5092708;28;20035;-67
2022/02/22 09:54:39;;;;;;;11.63;3.10;;;7.70;98.00;;;;;;5092906;28;20036;-68
2022/02/22 09:57:08;;;;;;;10.18;2.28;;;7.60;98.00;;;;;;5088847;28;20146;-67
2022/02/22 09:59:35;;;;;;;10.55;2.45;;;7.70;98.00;;;;;;5091467;28;20069;-67
2022/02/22 10:02:01;;;;;;;4.70;1.23;;;7.70;98.00;;;;;;5086272;28;20134;-68
2022/02/22 10:04:26;;;;;;;12.75;3.03;;;7.80;98.00;;;;;;5091571;28;20055;-67
2022/02/22 10:07:02;;;;;;;13.63;2.20;;;7.80;98.00;;;;;;5092692;28;20360;-69
2022/02/22 10:09:27;;;;;;;3.58;1.13;;;7.80;98.10;;;;;;5090810;28;20387;-69
2022/02/22 10:11:54;;;;;;;11.90;2.40;;;7.80;98.10;;;;;;5089452;28;20028;-68
2022/02/22 10:14:29;;;;;;;11.07;2.30;;;7.80;98.10;;;;;;5092958;28;20039;-68
2022/02/22 10:16:57;;;;;;;9.02;2.53;;;7.90;98.10;;;;;;5090059;28;20036;-68
2022/02/22 10:19:30;;;;;;;8.40;2.15;;;7.80;98.10;;;;;;5092148;28;20032;-68
2022/02/22 10:21:56;;;;;;;20.77;4.03;;;7.80;98.20;;;;;;5090501;28;20101;-68
2022/02/22 10:24:27;;;;;;;17.55;3.65;;;7.80;98.20;;;;;;5092093;28;20398;-68
2022/02/22 10:27:09;;;;;;;16.83;2.67;;;7.80;98.20;;;;;;5092501;28;20028;-68
2022/02/22 10:29:36;;;;;;;18.67;3.38;;;7.80;98.30;;;;;;5082741;28;20503;-68
2022/02/22 10:32:12;;;;;;;15.32;2.58;;;7.80;98.40;;;;;;5089126;28;20032;-68
2022/02/22 10:34:38;;;;;;;18.40;3.70;;;7.80;98.50;;;;;;5076689;28;20032;-68
2022/02/22 10:37:04;;;;;;;14.13;2.95;;;7.90;98.50;;;;;;5079546;28;20028;-68
2022/02/22 10:39:30;;;;;;;13.25;3.25;;;7.90;98.60;;;;;;5092394;28;20028;-68
2022/02/22 10:41:56;;;;;;;17.30;3.78;;;7.80;98.60;;;;;;5079249;28;20027;-68
2022/02/22 10:44:39;;;;;;;20.52;3.90;;;7.80;98.70;;;;;;5091449;28;20394;-68
2022/02/22 10:47:22;;;;;;;14.55;3.42;;;7.90;98.70;;;;;;5092912;28;20486;-68
2022/02/22 10:49:48;;;;;;;;;;;7.80;98.80;;;;;;5092085;28;20708;-68
2022/02/22 10:52:14;;;;;;;7.65;2.63;;;7.90;98.80;;;;;;5091214;28;19955;-68
2022/02/22 10:54:43;;;;;;;10.65;2.80;;;7.90;98.90;;;;;;5092722;28;20032;-69
2022/02/22 10:57:09;;;;;;;16.30;4.30;;;8.00;99.00;;;;;;5083573;28;20035;-68
2022/02/22 10:59:34;;;;;;;6.70;2.78;;;8.00;99.00;;;;;;5089574;28;20384;-67
2022/02/22 11:02:00;;;;;;;20.75;4.10;;;8.10;99.00;;;;;;5090470;28;20048;-68
2022/02/22 11:04:27;;;;;;;12.77;3.63;;;8.10;99.00;;;;;;5090180;28;20047;-68
2022/02/22 11:06:52;;;;;;;14.52;3.42;;;8.10;99.00;;;;;;5090636;28;20036;-68
2022/02/22 11:09:20;;;;;;;16.60;4.10;;;8.10;99.00;;;;;;5091898;28;20038;-68
2022/02/22 11:11:56;;;;;;;17.20;3.97;;;8.20;99.00;;;;;;5090748;28;20541;-69
2022/02/22 11:14:23;;;;;;;15.02;2.75;;;8.30;99.00;;;;;;5091139;28;20479;-71
2022/02/22 11:16:52;;;;;;;18.00;3.50;;;8.30;99.00;;;;;;5090802;28;20472;-67
2022/02/22 11:19:21;;;;;;;12.10;3.97;;;8.30;99.00;;;;;;5091725;28;20024;-68
2022/02/22 11:21:50;;;;;;;12.15;3.22;;;8.30;99.00;;;;;;5086770;28;20021;-68
2022/02/22 11:24:18;;;;;;;22.70;4.03;;;8.40;99.00;;;;;;5089084;28;20065;-72
2022/02/22 11:26:48;;;;;;;8.75;2.47;;;8.40;99.00;;;;;;5084585;28;20024;-69
2022/02/22 11:29:14;;;;;;;19.33;3.83;;;8.40;99.00;;;;;;5089401;28;20489;-69
2022/02/22 11:31:40;;;;;;;15.32;3.63;;;8.40;99.00;;;;;;5089125;28;20024;-71
2022/02/22 11:34:06;;;;;;;19.17;4.15;;;8.50;99.00;;;;;;5088597;28;20030;-71
2022/02/22 11:36:37;;;;;;;26.35;4.90;;;8.50;99.00;;;;;;5087266;28;20454;-67
2022/02/22 11:39:18;;;;;;;15.88;3.25;;;8.50;99.00;;;;;;5087395;28;20028;-67
2022/02/22 11:41:44;;;;;;;17.10;3.63;;;8.60;99.10;;;;;;5088617;28;20078;-67
2022/02/22 11:44:15;;;;;;;15.10;3.40;;;8.60;99.10;;;;;;5086274;28;20052;-67
2022/02/22 11:46:45;;;;;;;17.90;4.53;;;8.60;99.10;;;;;;5087627;28;20422;-67
2022/02/22 11:49:32;;;;;;;28.33;3.70;;;8.60;99.10;;;;;;5083993;28;20115;-66
2022/02/22 11:52:09;;;;;;;19.58;4.00;;;8.60;99.20;;;;;;5088622;28;20070;-68
2022/02/22 11:54:36;;;;;;;18.45;4.40;;;8.60;99.20;;;;;;5088244;28;20422;-68
2022/02/22 11:57:05;;;;;;;24.95;4.10;;;8.70;99.20;;;;;;5085081;28;20036;-68
2022/02/22 11:59:33;;;;;;;16.38;4.15;;;8.70;99.20;;;;;;5086336;28;20036;-68
2022/02/22 12:02:01;;;;;;;15.65;3.22;;;8.70;99.30;;;;;;5082440;28;20504;-68
2022/02/22 12:04:28;;;;;;;19.73;3.88;;;8.70;99.30;;;;;;5088148;28;20119;-68
2022/02/22 12:06:56;;;;;;;12.20;2.80;;;8.70;99.30;;;;;;5088783;28;20416;-69
2022/02/22 12:09:37;;;;;;;17.73;3.78;;;8.70;99.30;;;;;;5086023;28;20040;-68
2022/02/22 12:12:09;;;;;;;21.80;3.35;;;8.70;99.30;;;;;;5087472;28;20038;-68
2022/02/22 12:14:36;;;;;;;17.38;4.25;;;8.70;99.30;;;;;;5084543;28;20386;-68
2022/02/22 12:17:09;;;;;;;26.55;5.07;;;8.70;99.40;;;;;;5092294;28;20032;-68
2022/02/22 12:19:35;;;;;;;13.60;3.72;;;8.60;99.50;;;;;;5093694;28;20093;-68
2022/02/22 12:22:05;;;;;;;11.60;3.00;;;8.60;99.60;;;;;;5091501;28;20067;-68
2022/02/22 12:24:32;;;;;;;21.55;4.47;;;8.60;99.70;;;;;;5093162;28;20036;-68
2022/02/22 12:27:08;;;;;;;21.02;4.50;;;8.60;99.80;;;;;;5088861;28;20115;-68
2022/02/22 12:29:34;;;;;;;21.20;3.65;;;8.60;99.80;;;;;;5090917;28;20032;-67
2022/02/22 12:32:04;;;;;;;10.38;3.00;;;8.60;99.90;;;;;;5090578;28;20024;-68
2022/02/22 12:34:33;;;;;;;15.75;4.65;;;8.70;99.90;;;;;;5091187;28;20079;-68
2022/02/22 12:37:05;;;;;;;10.43;2.38;;;8.60;99.90;;;;;;5088288;28;20042;-67
2022/02/22 12:39:33;;;;;;;12.75;3.40;;;8.60;99.90;;;;;;5073411;28;20034;-67
2022/02/22 12:42:00;;;;;;;18.13;3.47;;;8.70;99.90;;;;;;5091393;28;20038;-69
2022/02/22 12:44:27;;;;;;;21.48;3.50;;;8.70;99.90;;;;;;5090709;28;20032;-69
2022/02/22 12:46:55;;;;;;;16.45;3.78;;;8.80;99.90;;;;;;5090807;28;20688;-69